Time;durP1;ratioP1;P1;durP2;ratioP2;P2;SDS_P1;SDS_P2;PMS_P1;PMS_P2;Temp;Humidity;BMP_temperature;BMP_pressure;BME280_temperature;BME280_humidity;BME280_pressure;Samples;Min_cycle;Max_cycle;Signal;HPM_P1;HPM_P2
2023/06/08 00:00:18;;;;;;;12.95;3.40;;;;;;;;;;5016560;28;20041;-45
2023/06/08 00:02:46;;;;;;;10.50;4.10;;;;;;;;;;5024040;28;20046;-45
2023/06/08 00:05:16;;;;;;;11.38;4.22;;;;;;;;;;5024854;28;20041;-48
2023/06/08 00:07:44;;;;;;;14.07;4.30;;;;;;;;;;5021321;28;20054;-44
2023/06/08 00:10:12;;;;;;;10.23;3.78;;;;;;;;;;5020429;28;20446;-46
2023/06/08 00:12:40;;;;;;;12.55;4.07;;;;;;;;;;5033417;28;20735;-46
2023/06/08 00:15:09;;;;;;;11.30;4.30;;;;;;;;;;5023317;28;20056;-46
2023/06/08 00:17:39;;;;;;;10.48;4.13;;;;;;;;;;5020834;28;20344;-45
2023/06/08 00:20:09;;;;;;;10.85;3.95;;;;;;;;;;5020757;28;20044;-46
2023/06/08 00:22:37;;;;;;;10.35;4.05;;;;;;;;;;5021075;28;20041;-47
2023/06/08 00:25:05;;;;;;;11.23;3.95;;;;;;;;;;5024816;28;20489;-44
2023/06/08 00:27:33;;;;;;;9.87;4.40;;;;;;;;;;5012252;28;20068;-45
2023/06/08 00:30:01;;;;;;;15.65;4.22;;;;;;;;;;5025409;28;20065;-45
2023/06/08 00:32:29;;;;;;;9.65;4.05;;;;;;;;;;5013808;28;20083;-45
2023/06/08 00:34:58;;;;;;;9.27;4.28;;;;;;;;;;5020920;28;20047;-47
2023/06/08 00:37:26;;;;;;;10.40;4.93;;;;;;;;;;5019140;28;20475;-44
2023/06/08 00:39:53;;;;;;;11.67;4.80;;;;;;;;;;5019826;28;20049;-44
2023/06/08 00:42:21;;;;;;;14.02;4.75;;;;;;;;;;5023351;28;20825;-46
2023/06/08 00:44:49;;;;;;;12.77;4.65;;;;;;;;;;5011307;28;20045;-45
2023/06/08 00:47:17;;;;;;;13.75;4.47;;;;;;;;;;5006831;28;20060;-46
2023/06/08 00:49:45;;;;;;;14.45;4.55;;;;;;;;;;5007579;28;20039;-48
2023/06/08 00:52:15;;;;;;;12.87;4.67;;;;;;;;;;5018449;28;20479;-48
2023/06/08 00:54:48;;;;;;;12.70;5.05;;;;;;;;;;5013012;28;20043;-45
2023/06/08 00:57:18;;;;;;;11.43;4.68;;;;;;;;;;5025547;28;20103;-44
2023/06/08 00:59:49;;;;;;;11.65;4.97;;;;;;;;;;5020604;28;20052;-46
2023/06/08 01:02:17;;;;;;;11.98;5.05;;;;;;;;;;5012852;28;20149;-44
2023/06/08 01:04:45;;;;;;;13.07;5.23;;;;;;;;;;5025022;28;20041;-45
2023/06/08 01:07:19;;;;;;;11.30;5.03;;;;;;;;;;5024884;28;20040;-46
2023/06/08 01:09:51;;;;;;;12.05;4.72;;;;;;;;;;5015002;28;20131;-46
2023/06/08 01:12:23;;;;;;;15.35;4.88;;;;;;;;;;5001046;28;20083;-46
2023/06/08 01:14:55;;;;;;;15.90;4.82;;;;;;;;;;5017336;28;20056;-46
2023/06/08 01:17:25;;;;;;;12.37;4.53;;;;;;;;;;5002803;28;22255;-46
2023/06/08 01:20:17;;;;;;;12.57;4.72;;;;;;;;;;5019134;28;20049;-47
2023/06/08 01:22:56;;;;;;;14.88;5.15;;;;;;;;;;5014358;28;20072;-47
2023/06/08 01:25:28;;;;;;;18.27;5.40;;;;;;;;;;5014670;28;20037;-47
2023/06/08 01:28:00;;;;;;;15.82;5.57;;;;;;;;;;5020038;28;20033;-46
2023/06/08 01:30:28;;;;;;;16.57;5.17;;;;;;;;;;5023098;28;20051;-45
2023/06/08 01:32:55;;;;;;;16.67;5.43;;;;;;;;;;5005833;28;20052;-44
2023/06/08 01:35:23;;;;;;;16.50;5.70;;;;;;;;;;5030329;28;20071;-44
2023/06/08 01:37:54;;;;;;;13.55;4.65;;;;;;;;;;4996398;28;20510;-44
2023/06/08 01:40:25;;;;;;;16.90;5.32;;;;;;;;;;4999148;28;20045;-47
2023/06/08 01:42:54;;;;;;;13.47;5.10;;;;;;;;;;5022528;28;20045;-47
2023/06/08 01:45:24;;;;;;;12.07;5.60;;;;;;;;;;5020330;28;20037;-50
2023/06/08 01:47:53;;;;;;;12.55;5.20;;;;;;;;;;4995258;28;20037;-44
2023/06/08 01:50:21;;;;;;;12.90;5.40;;;;;;;;;;5028587;28;20471;-48
2023/06/08 01:52:49;;;;;;;14.18;5.15;;;;;;;;;;5016089;28;20049;-44
2023/06/08 01:55:17;;;;;;;14.97;5.47;;;;;;;;;;5020178;28;20041;-44
2023/06/08 01:57:45;;;;;;;11.80;4.93;;;;;;;;;;4997741;28;20906;-44
2023/06/08 02:00:17;;;;;;;23.20;5.93;;;;;;;;;;5014872;28;20065;-45
2023/06/08 02:02:45;;;;;;;15.32;6.13;;;;;;;;;;5022210;28;20045;-44
2023/06/08 02:05:14;;;;;;;18.33;5.43;;;;;;;;;;5012936;28;20766;-45
2023/06/08 02:07:44;;;;;;;16.77;5.60;;;;;;;;;;5007805;28;20037;-45
2023/06/08 02:10:13;;;;;;;14.85;5.20;;;;;;;;;;5005238;28;20045;-45
2023/06/08 02:12:41;;;;;;;13.32;5.35;;;;;;;;;;5003207;28;20388;-44
2023/06/08 02:15:09;;;;;;;14.57;5.53;;;;;;;;;;4996085;28;20069;-44
2023/06/08 02:17:41;;;;;;;17.70;5.72;;;;;;;;;;4998778;28;20044;-45
2023/06/08 02:20:09;;;;;;;14.83;5.43;;;;;;;;;;5000961;28;20049;-47
2023/06/08 02:22:38;;;;;;;13.13;4.95;;;;;;;;;;5010763;28;20037;-44
2023/06/08 02:25:07;;;;;;;14.75;5.35;;;;;;;;;;5003195;28;20049;-46
2023/06/08 02:27:36;;;;;;;13.60;5.55;;;;;;;;;;5012369;28;20042;-46
2023/06/08 02:30:05;;;;;;;12.88;5.47;;;;;;;;;;4960242;28;20057;-44
2023/06/08 02:32:33;;;;;;;13.73;5.43;;;;;;;;;;4987641;28;20683;-43
2023/06/08 02:35:04;;;;;;;14.70;6.07;;;;;;;;;;4994387;28;20041;-45
2023/06/08 02:37:33;;;;;;;24.25;5.68;;;;;;;;;;5000173;28;20045;-45
2023/06/08 02:40:03;;;;;;;11.98;5.20;;;;;;;;;;5007356;28;20049;-46
2023/06/08 02:42:32;;;;;;;12.85;4.68;;;;;;;;;;5005949;28;20037;-46
2023/06/08 02:45:00;;;;;;;17.23;5.90;;;;;;;;;;4970663;28;20507;-44
2023/06/08 02:47:27;;;;;;;12.55;5.22;;;;;;;;;;5015832;28;20049;-44
2023/06/08 02:49:55;;;;;;;12.45;6.30;;;;;;;;;;4993639;28;20446;-49
2023/06/08 02:52:24;;;;;;;13.63;5.80;;;;;;;;;;5007229;28;20033;-47
2023/06/08 02:54:52;;;;;;;12.60;5.63;;;;;;;;;;5000684;28;20037;-44
2023/06/08 02:57:20;;;;;;;14.23;6.00;;;;;;;;;;4998159;28;20040;-44
2023/06/08 02:59:48;;;;;;;15.65;6.60;;;;;;;;;;5006333;28;20050;-45
2023/06/08 03:02:15;;;;;;;16.45;6.30;;;;;;;;;;4996211;28;20049;-44
2023/06/08 03:04:44;;;;;;;13.82;5.63;;;;;;;;;;4983489;28;20048;-46
2023/06/08 03:07:15;;;;;;;13.98;5.97;;;;;;;;;;5010792;28;20112;-45
2023/06/08 03:09:44;;;;;;;16.43;5.80;;;;;;;;;;5006367;28;20055;-44
2023/06/08 03:12:13;;;;;;;17.83;6.30;;;;;;;;;;5024485;28;20044;-48
2023/06/08 03:14:41;;;;;;;20.17;6.55;;;;;;;;;;5015183;28;20631;-44
2023/06/08 03:17:10;;;;;;;13.07;5.90;;;;;;;;;;5035039;28;20040;-44
2023/06/08 03:19:38;;;;;;;11.85;6.40;;;;;;;;;;5003378;28;20048;-44
2023/06/08 03:22:07;;;;;;;13.33;6.17;;;;;;;;;;5022890;28;20120;-46
2023/06/08 03:24:34;;;;;;;13.77;6.05;;;;;;;;;;5024287;28;20045;-47
2023/06/08 03:27:06;;;;;;;14.93;5.80;;;;;;;;;;5002542;28;20060;-45
2023/06/08 03:29:34;;;;;;;13.52;5.93;;;;;;;;;;5021766;28;20033;-45
2023/06/08 03:32:01;;;;;;;14.60;6.75;;;;;;;;;;5015384;28;20045;-49
2023/06/08 03:34:30;;;;;;;14.37;6.63;;;;;;;;;;5012299;28;20048;-46
2023/06/08 03:37:00;;;;;;;15.40;5.85;;;;;;;;;;5031442;28;20041;-44
2023/06/08 03:39:27;;;;;;;12.88;6.10;;;;;;;;;;5026519;28;20048;-45
2023/06/08 03:41:55;;;;;;;12.13;6.05;;;;;;;;;;5009839;28;20044;-45
2023/06/08 03:44:24;;;;;;;11.80;5.90;;;;;;;;;;5029820;28;20055;-47
2023/06/08 03:46:52;;;;;;;12.80;6.13;;;;;;;;;;5024747;28;20040;-46
2023/06/08 03:49:20;;;;;;;14.32;5.72;;;;;;;;;;5027161;28;20040;-46
2023/06/08 03:51:47;;;;;;;14.45;6.10;;;;;;;;;;5027333;28;20049;-44
2023/06/08 03:54:16;;;;;;;15.23;5.75;;;;;;;;;;5021889;28;20048;-45
2023/06/08 03:56:44;;;;;;;13.90;6.20;;;;;;;;;;5014577;28;20490;-45
2023/06/08 03:59:12;;;;;;;12.13;5.27;;;;;;;;;;5028613;28;20037;-44
2023/06/08 04:01:41;;;;;;;14.00;5.70;;;;;;;;;;4987561;28;20048;-45
2023/06/08 04:04:11;;;;;;;14.75;4.93;;;;;;;;;;5024092;28;20600;-45
2023/06/08 04:06:41;;;;;;;12.18;5.15;;;;;;;;;;5019721;28;20419;-46
2023/06/08 04:09:08;;;;;;;15.30;5.75;;;;;;;;;;5020030;28;20069;-44
2023/06/08 04:11:36;;;;;;;15.90;6.53;;;;;;;;;;5027261;28;20044;-44
2023/06/08 04:14:04;;;;;;;16.83;6.68;;;;;;;;;;5011059;28;20052;-47
2023/06/08 04:16:32;;;;;;;14.88;6.45;;;;;;;;;;5022186;28;20044;-45
2023/06/08 04:19:01;;;;;;;12.15;5.90;;;;;;;;;;5021325;28;20913;-46
2023/06/08 04:21:29;;;;;;;13.65;6.00;;;;;;;;;;5018508;28;20049;-46
2023/06/08 04:23:57;;;;;;;16.50;6.63;;;;;;;;;;5014484;28;20511;-46
2023/06/08 04:26:24;;;;;;;13.43;5.63;;;;;;;;;;5023780;28;20037;-45
2023/06/08 04:28:52;;;;;;;14.98;6.03;;;;;;;;;;5019657;28;20037;-47
2023/06/08 04:31:20;;;;;;;13.88;6.47;;;;;;;;;;5008853;28;20193;-47
2023/06/08 04:33:48;;;;;;;15.93;6.38;;;;;;;;;;5016032;28;20051;-47
2023/06/08 04:36:18;;;;;;;18.13;6.37;;;;;;;;;;5020552;28;20033;-47
2023/06/08 04:38:46;;;;;;;14.38;6.20;;;;;;;;;;5018895;28;20040;-44
2023/06/08 04:41:14;;;;;;;10.57;5.60;;;;;;;;;;5024960;28;20045;-46
2023/06/08 04:43:44;;;;;;;13.35;5.93;;;;;;;;;;5017355;28;20578;-48
2023/06/08 04:46:12;;;;;;;15.80;6.35;;;;;;;;;;5025304;28;20041;-45
2023/06/08 04:48:43;;;;;;;14.87;6.63;;;;;;;;;;5019773;28;20044;-45
2023/06/08 04:51:12;;;;;;;13.65;6.05;;;;;;;;;;5017820;28;20028;-47
2023/06/08 04:53:42;;;;;;;13.40;5.50;;;;;;;;;;5017526;28;20041;-46
2023/06/08 04:56:18;;;;;;;12.38;6.20;;;;;;;;;;5008640;28;20041;-44
2023/06/08 04:58:47;;;;;;;14.25;6.45;;;;;;;;;;5029331;28;20052;-49
2023/06/08 05:01:14;;;;;;;12.40;6.53;;;;;;;;;;5012081;28;21421;-45
2023/06/08 05:03:43;;;;;;;15.35;6.18;;;;;;;;;;5022181;28;20543;-48
2023/06/08 05:06:11;;;;;;;14.30;6.82;;;;;;;;;;5014679;28;20478;-44
2023/06/08 05:08:38;;;;;;;12.48;6.00;;;;;;;;;;5030571;28;20307;-44
2023/06/08 05:11:08;;;;;;;15.80;5.53;;;;;;;;;;5008305;28;20463;-47
2023/06/08 05:13:36;;;;;;;14.83;6.27;;;;;;;;;;5030200;28;20044;-47
2023/06/08 05:16:04;;;;;;;13.57;5.82;;;;;;;;;;4996795;28;20052;-46
2023/06/08 05:18:31;;;;;;;13.10;5.45;;;;;;;;;;5030297;28;20045;-44
2023/06/08 05:20:59;;;;;;;13.95;5.65;;;;;;;;;;5015618;28;20074;-46
2023/06/08 05:23:28;;;;;;;12.55;6.00;;;;;;;;;;5015672;28;20060;-47
2023/06/08 05:25:58;;;;;;;12.70;5.23;;;;;;;;;;5013589;28;20491;-47
2023/06/08 05:28:28;;;;;;;15.93;5.75;;;;;;;;;;5029823;28;20045;-44
2023/06/08 05:30:55;;;;;;;15.18;5.72;;;;;;;;;;5009650;28;20353;-46
2023/06/08 05:33:23;;;;;;;10.43;4.80;;;;;;;;;;5021824;28;20048;-46
2023/06/08 05:35:51;;;;;;;14.13;5.80;;;;;;;;;;5018959;28;20526;-47
2023/06/08 05:38:20;;;;;;;12.30;5.87;;;;;;;;;;5021668;28;20049;-46
2023/06/08 05:40:47;;;;;;;10.98;5.40;;;;;;;;;;5015930;28;20045;-46
2023/06/08 05:43:15;;;;;;;12.98;5.00;;;;;;;;;;5006033;28;20048;-45
2023/06/08 05:45:45;;;;;;;12.40;5.05;;;;;;;;;;5024724;28;20030;-48
2023/06/08 05:48:13;;;;;;;11.93;5.63;;;;;;;;;;5003969;28;20037;-47
2023/06/08 05:50:41;;;;;;;12.97;5.80;;;;;;;;;;5024856;28;20227;-45
2023/06/08 05:53:09;;;;;;;11.95;5.72;;;;;;;;;;5013822;28;20221;-46
2023/06/08 05:55:41;;;;;;;12.27;5.65;;;;;;;;;;5026260;28;20202;-47
2023/06/08 05:58:09;;;;;;;11.88;4.97;;;;;;;;;;4991446;28;20048;-47
2023/06/08 06:00:37;;;;;;;11.77;4.68;;;;;;;;;;5032523;28;20156;-46
2023/06/08 06:03:06;;;;;;;14.17;5.00;;;;;;;;;;5021344;28;20079;-45
2023/06/08 06:05:34;;;;;;;11.07;4.65;;;;;;;;;;5027825;28;20038;-45
2023/06/08 06:08:01;;;;;;;11.63;4.88;;;;;;;;;;5009753;28;20049;-45
2023/06/08 06:10:29;;;;;;;11.23;4.40;;;;;;;;;;5028655;28;20128;-45
2023/06/08 06:12:57;;;;;;;13.23;4.68;;;;;;;;;;5012873;28;20063;-48
2023/06/08 06:15:25;;;;;;;10.13;4.40;;;;;;;;;;5019805;28;20068;-46
2023/06/08 06:17:53;;;;;;;10.73;4.20;;;;;;;;;;5025006;28;20041;-44
2023/06/08 06:20:27;;;;;;;12.13;3.80;;;;;;;;;;5019219;28;20052;-44
2023/06/08 06:22:55;;;;;;;10.90;4.93;;;;;;;;;;5017299;28;20069;-47
2023/06/08 06:25:22;;;;;;;10.50;4.13;;;;;;;;;;5010094;28;20052;-44
2023/06/08 06:27:50;;;;;;;10.33;3.90;;;;;;;;;;5026393;28;20449;-46
2023/06/08 06:30:18;;;;;;;11.80;4.13;;;;;;;;;;5019188;28;20032;-44
2023/06/08 06:32:46;;;;;;;13.15;4.03;;;;;;;;;;5014224;28;20041;-45
2023/06/08 06:35:14;;;;;;;9.77;3.90;;;;;;;;;;5021044;28;20764;-44
2023/06/08 06:37:43;;;;;;;8.60;4.15;;;;;;;;;;5017372;28;20036;-46
2023/06/08 06:40:11;;;;;;;9.00;3.60;;;;;;;;;;5016341;28;20041;-45
2023/06/08 06:42:39;;;;;;;12.23;4.32;;;;;;;;;;5031428;28;20411;-47
2023/06/08 06:45:11;;;;;;;9.88;3.58;;;;;;;;;;5015044;28;20049;-47
2023/06/08 06:47:38;;;;;;;8.73;3.60;;;;;;;;;;5023789;28;20076;-45
2023/06/08 06:50:07;;;;;;;10.63;3.55;;;;;;;;;;5005247;28;20521;-44
2023/06/08 06:52:35;;;;;;;11.77;3.20;;;;;;;;;;5018046;28;20029;-48
2023/06/08 06:55:05;;;;;;;9.98;3.90;;;;;;;;;;5016588;28;20037;-45
2023/06/08 06:57:32;;;;;;;12.63;4.10;;;;;;;;;;5026742;28;20534;-46
2023/06/08 07:00:00;;;;;;;9.30;3.47;;;;;;;;;;4998511;28;20350;-49
2023/06/08 07:02:28;;;;;;;10.32;4.07;;;;;;;;;;5028380;28;20052;-45
2023/06/08 07:04:58;;;;;;;9.20;4.10;;;;;;;;;;5002689;28;20738;-49
2023/06/08 07:07:28;;;;;;;10.70;3.40;;;;;;;;;;5024835;28;20041;-46
2023/06/08 07:09:56;;;;;;;9.82;3.78;;;;;;;;;;5023759;28;20400;-46
2023/06/08 07:12:25;;;;;;;14.55;4.07;;;;;;;;;;5017588;28;20064;-46
2023/06/08 07:14:53;;;;;;;12.88;3.72;;;;;;;;;;5033382;28;20052;-45
2023/06/08 07:17:21;;;;;;;10.43;4.03;;;;;;;;;;5020175;28;20041;-44
2023/06/08 07:19:51;;;;;;;10.18;3.83;;;;;;;;;;5029813;28;20047;-45
2023/06/08 07:22:19;;;;;;;10.98;4.13;;;;;;;;;;5017771;28;20060;-46
2023/06/08 07:25:09;;;;;;;10.95;4.10;;;;;;;;;;5011811;28;20037;-45
2023/06/08 07:27:57;;;;;;;15.90;4.00;;;;;;;;;;5024966;28;20053;-44
2023/06/08 07:30:26;;;;;;;8.07;3.57;;;;;;;;;;5018103;28;20417;-47
2023/06/08 07:32:53;;;;;;;8.65;3.53;;;;;;;;;;5015021;28;20046;-45
2023/06/08 07:35:21;;;;;;;9.73;4.20;;;;;;;;;;5004764;28;20495;-45
2023/06/08 07:37:50;;;;;;;8.13;3.75;;;;;;;;;;4992901;28;20048;-45
2023/06/08 07:40:20;;;;;;;12.43;4.05;;;;;;;;;;5018566;28;20091;-45
2023/06/08 07:42:48;;;;;;;11.23;4.30;;;;;;;;;;5018178;28;20045;-47
2023/06/08 07:45:17;;;;;;;11.18;3.50;;;;;;;;;;5009826;28;20160;-47
2023/06/08 07:47:46;;;;;;;9.93;3.60;;;;;;;;;;5028231;28;20044;-45
2023/06/08 07:50:15;;;;;;;8.10;3.85;;;;;;;;;;5024816;28;20345;-47
2023/06/08 07:52:44;;;;;;;9.00;3.58;;;;;;;;;;5016754;28;20377;-45
2023/06/08 07:55:13;;;;;;;9.07;3.80;;;;;;;;;;5015091;28;21336;-46
2023/06/08 07:57:42;;;;;;;8.57;3.25;;;;;;;;;;5029214;28;20080;-46
2023/06/08 08:00:10;;;;;;;10.85;3.45;;;;;;;;;;5013846;28;20122;-49
2023/06/08 08:02:40;;;;;;;8.30;3.40;;;;;;;;;;5025683;28;20494;-48
2023/06/08 08:05:09;;;;;;;10.20;3.40;;;;;;;;;;5015141;28;20052;-45
2023/06/08 08:07:37;;;;;;;10.30;3.50;;;;;;;;;;5025664;28;20156;-48
2023/06/08 08:10:05;;;;;;;11.80;3.88;;;;;;;;;;5014891;28;20487;-45
2023/06/08 08:12:33;;;;;;;8.60;3.70;;;;;;;;;;5001278;28;20725;-46
2023/06/08 08:15:01;;;;;;;8.43;3.95;;;;;;;;;;5013060;28;20210;-45
2023/06/08 08:17:29;;;;;;;10.05;3.83;;;;;;;;;;5025547;28;20044;-47
2023/06/08 08:19:58;;;;;;;8.90;3.77;;;;;;;;;;5029312;28;20492;-44
2023/06/08 08:22:26;;;;;;;7.75;2.95;;;;;;;;;;5005469;28;20233;-45
2023/06/08 08:25:12;;;;;;;12.63;3.97;;;;;;;;;;5012815;28;20174;-45
2023/06/08 08:27:40;;;;;;;10.52;3.28;;;;;;;;;;5022599;28;20095;-45
2023/06/08 08:30:10;;;;;;;9.68;3.10;;;;;;;;;;5002033;28;20382;-49
2023/06/08 08:32:46;;;;;;;8.90;3.43;;;;;;;;;;4987091;28;20045;-46
2023/06/08 08:35:16;;;;;;;10.48;3.60;;;;;;;;;;4986150;28;22555;-45
2023/06/08 08:37:45;;;;;;;10.00;3.50;;;;;;;;;;4999570;28;20119;-47
2023/06/08 08:40:13;;;;;;;12.80;3.78;;;;;;;;;;4987491;28;20045;-45
2023/06/08 08:42:44;;;;;;;10.48;3.60;;;;;;;;;;5010762;28;20052;-47
2023/06/08 08:45:14;;;;;;;9.90;3.60;;;;;;;;;;5001777;28;20057;-47
2023/06/08 08:47:42;;;;;;;7.80;3.53;;;;;;;;;;4994900;28;20032;-46
2023/06/08 08:50:16;;;;;;;9.25;3.55;;;;;;;;;;4988869;28;20090;-45
2023/06/08 08:52:48;;;;;;;10.55;3.70;;;;;;;;;;4993558;28;20462;-46
2023/06/08 08:55:16;;;;;;;10.70;3.75;;;;;;;;;;4999135;28;20517;-44
2023/06/08 08:58:02;;;;;;;9.83;3.90;;;;;;;;;;5004337;28;20633;-45
2023/06/08 09:00:32;;;;;;;9.32;3.15;;;;;;;;;;4997792;28;20492;-47
2023/06/08 09:03:01;;;;;;;10.82;4.53;;;;;;;;;;4989822;28;20065;-50
2023/06/08 09:05:29;;;;;;;7.82;3.33;;;;;;;;;;5009214;28;20115;-45
2023/06/08 09:07:58;;;;;;;13.38;4.00;;;;;;;;;;4989997;28;20811;-45
2023/06/08 09:10:27;;;;;;;8.73;3.60;;;;;;;;;;5002807;28;20067;-47
2023/06/08 09:12:56;;;;;;;12.25;4.20;;;;;;;;;;4990060;28;20821;-49
2023/06/08 09:15:27;;;;;;;9.63;3.75;;;;;;;;;;5003086;28;20025;-46
2023/06/08 09:17:56;;;;;;;15.75;4.07;;;;;;;;;;4999060;28;20106;-45
2023/06/08 09:20:27;;;;;;;11.52;4.47;;;;;;;;;;4993098;28;20553;-48
2023/06/08 09:22:56;;;;;;;9.60;3.83;;;;;;;;;;5008357;28;20040;-46
2023/06/08 09:25:37;;;;;;;8.70;3.65;;;;;;;;;;4997167;28;20048;-47
2023/06/08 09:28:14;;;;;;;9.05;3.75;;;;;;;;;;5002500;28;20032;-46
2023/06/08 09:30:43;;;;;;;11.38;3.95;;;;;;;;;;4978562;28;20044;-47
2023/06/08 09:33:21;;;;;;;11.35;4.22;;;;;;;;;;5007917;28;20043;-45
2023/06/08 09:35:49;;;;;;;10.10;3.93;;;;;;;;;;5000584;28;21586;-46
2023/06/08 09:38:21;;;;;;;10.85;4.43;;;;;;;;;;4998579;28;20084;-47
2023/06/08 09:40:51;;;;;;;10.32;4.32;;;;;;;;;;4991469;28;20586;-46
2023/06/08 09:43:31;;;;;;;9.30;4.15;;;;;;;;;;5000039;28;20049;-46
2023/06/08 09:45:59;;;;;;;10.88;4.03;;;;;;;;;;5008719;28;20525;-47
2023/06/08 09:48:27;;;;;;;10.93;4.70;;;;;;;;;;4988860;28;20033;-46
2023/06/08 09:50:56;;;;;;;9.02;4.60;;;;;;;;;;4990579;28;20076;-46
2023/06/08 09:53:25;;;;;;;12.57;4.20;;;;;;;;;;4998745;28;21480;-46
2023/06/08 09:55:54;;;;;;;9.02;4.20;;;;;;;;;;5004503;28;20044;-45
2023/06/08 09:58:25;;;;;;;12.05;4.65;;;;;;;;;;4997838;28;20049;-46
2023/06/08 10:00:58;;;;;;;10.93;4.27;;;;;;;;;;4979301;28;20460;-46
2023/06/08 10:03:30;;;;;;;12.60;3.95;;;;;;;;;;5000829;28;20766;-46
2023/06/08 10:05:58;;;;;;;11.45;3.65;;;;;;;;;;4987879;28;20656;-44
2023/06/08 10:08:27;;;;;;;11.10;3.50;;;;;;;;;;5007097;28;20138;-46
2023/06/08 10:10:57;;;;;;;8.63;3.85;;;;;;;;;;4982143;28;20602;-47
2023/06/08 10:13:25;;;;;;;10.33;3.83;;;;;;;;;;4985801;28;20041;-46
2023/06/08 10:15:53;;;;;;;10.15;4.10;;;;;;;;;;4991127;28;20526;-47
2023/06/08 10:18:25;;;;;;;10.55;3.95;;;;;;;;;;4992384;28;20092;-46
2023/06/08 10:20:53;;;;;;;10.48;4.30;;;;;;;;;;4989698;28;20044;-49
2023/06/08 10:23:21;;;;;;;10.52;3.45;;;;;;;;;;5009105;28;20049;-46
2023/06/08 10:25:50;;;;;;;9.97;3.97;;;;;;;;;;4975956;28;21143;-46
2023/06/08 10:28:20;;;;;;;9.35;4.85;;;;;;;;;;5013446;28;20399;-46
2023/06/08 10:30:50;;;;;;;11.05;4.57;;;;;;;;;;4984376;28;20041;-46
2023/06/08 10:33:20;;;;;;;9.57;4.53;;;;;;;;;;5001246;28;20407;-46
2023/06/08 10:36:03;;;;;;;10.73;3.97;;;;;;;;;;4997627;28;20056;-45
2023/06/08 10:38:32;;;;;;;10.77;4.10;;;;;;;;;;4986278;28;20048;-45
2023/06/08 10:40:59;;;;;;;9.23;3.83;;;;;;;;;;4998302;28;20514;-45
2023/06/08 10:43:28;;;;;;;8.40;3.42;;;;;;;;;;5001991;28;20060;-45
2023/06/08 10:46:16;;;;;;;9.68;4.07;;;;;;;;;;5003641;28;20464;-45
2023/06/08 10:48:44;;;;;;;8.73;3.88;;;;;;;;;;5011852;28;20538;-46
2023/06/08 10:51:23;;;;;;;10.33;4.40;;;;;;;;;;4990426;28;20044;-46
2023/06/08 10:53:56;;;;;;;12.25;3.85;;;;;;;;;;4999477;28;20504;-45
2023/06/08 10:56:25;;;;;;;9.25;3.95;;;;;;;;;;4998068;28;20041;-45
2023/06/08 10:58:55;;;;;;;13.82;4.25;;;;;;;;;;4985700;28;20132;-48
2023/06/08 11:01:30;;;;;;;8.52;4.30;;;;;;;;;;4993371;28;20759;-45
2023/06/08 11:04:00;;;;;;;9.53;3.90;;;;;;;;;;4986744;28;20095;-48
2023/06/08 11:06:35;;;;;;;13.02;3.75;;;;;;;;;;4995058;28;20048;-45
2023/06/08 11:09:03;;;;;;;14.10;4.53;;;;;;;;;;5012178;28;20095;-48
2023/06/08 11:11:31;;;;;;;7.53;3.38;;;;;;;;;;4985043;28;20049;-45
2023/06/08 11:14:02;;;;;;;8.85;4.28;;;;;;;;;;4985523;28;20041;-46
2023/06/08 11:16:30;;;;;;;7.80;3.77;;;;;;;;;;5004916;28;20736;-45
2023/06/08 11:18:57;;;;;;;9.43;3.90;;;;;;;;;;5008110;28;20148;-45
2023/06/08 11:21:26;;;;;;;11.68;4.55;;;;;;;;;;5002971;28;20045;-46
2023/06/08 11:23:54;;;;;;;10.02;4.43;;;;;;;;;;4988973;28;20231;-45
2023/06/08 11:26:22;;;;;;;8.10;3.90;;;;;;;;;;5004403;28;20055;-46
2023/06/08 11:28:50;;;;;;;13.00;4.20;;;;;;;;;;4988706;28;20051;-45
2023/06/08 11:31:20;;;;;;;9.25;4.47;;;;;;;;;;4984110;28;20114;-47
2023/06/08 11:33:48;;;;;;;8.18;4.10;;;;;;;;;;5002571;28;20460;-47
2023/06/08 11:36:16;;;;;;;8.73;4.13;;;;;;;;;;5007910;28;20522;-46
2023/06/08 11:38:44;;;;;;;9.27;4.28;;;;;;;;;;5004958;28;20032;-48
2023/06/08 11:41:14;;;;;;;11.00;4.30;;;;;;;;;;4999567;28;20506;-46
2023/06/08 11:43:42;;;;;;;8.48;3.70;;;;;;;;;;4999022;28;20041;-47
2023/06/08 11:46:10;;;;;;;7.82;3.65;;;;;;;;;;5007099;28;20041;-48
2023/06/08 11:48:39;;;;;;;8.60;4.68;;;;;;;;;;4998306;28;20062;-50
2023/06/08 11:51:08;;;;;;;9.50;4.88;;;;;;;;;;4979871;28;20052;-48
2023/06/08 11:53:38;;;;;;;8.90;3.80;;;;;;;;;;4999056;28;20889;-51
2023/06/08 11:56:06;;;;;;;9.38;3.78;;;;;;;;;;5003255;28;20147;-49
2023/06/08 11:58:36;;;;;;;9.50;3.85;;;;;;;;;;5007849;28;20047;-47
2023/06/08 12:01:11;;;;;;;9.43;3.78;;;;;;;;;;4989213;28;20136;-46
2023/06/08 12:03:47;;;;;;;10.27;4.40;;;;;;;;;;5006627;28;20040;-48
2023/06/08 12:06:16;;;;;;;11.50;4.30;;;;;;;;;;4989175;28;20049;-48
2023/06/08 12:08:44;;;;;;;12.07;4.50;;;;;;;;;;5003365;28;20556;-49
2023/06/08 12:11:13;;;;;;;9.43;3.85;;;;;;;;;;4984442;28;20040;-46
2023/06/08 12:13:42;;;;;;;8.43;4.28;;;;;;;;;;5004040;28;20040;-46
2023/06/08 12:16:10;;;;;;;8.00;3.80;;;;;;;;;;4993824;28;20344;-47
2023/06/08 12:18:39;;;;;;;10.83;3.93;;;;;;;;;;5014119;28;20625;-46
2023/06/08 12:21:13;;;;;;;10.40;3.78;;;;;;;;;;4978416;28;20041;-45
2023/06/08 12:23:43;;;;;;;9.35;3.70;;;;;;;;;;4987884;28;20884;-47
2023/06/08 12:26:11;;;;;;;8.48;3.85;;;;;;;;;;4999509;28;20098;-49
2023/06/08 12:28:39;;;;;;;8.18;3.90;;;;;;;;;;5007088;28;20049;-48
2023/06/08 12:31:07;;;;;;;10.57;4.03;;;;;;;;;;4982086;28;21188;-45
2023/06/08 12:33:35;;;;;;;8.60;3.92;;;;;;;;;;5002112;28;20431;-45
2023/06/08 12:36:03;;;;;;;8.35;3.72;;;;;;;;;;4997654;28;20068;-46
2023/06/08 12:38:32;;;;;;;11.52;3.58;;;;;;;;;;5010271;28;20303;-45
2023/06/08 12:41:00;;;;;;;7.78;3.58;;;;;;;;;;4979325;28;20605;-48
2023/06/08 12:43:28;;;;;;;10.17;4.43;;;;;;;;;;5007851;28;20475;-45
2023/06/08 12:45:58;;;;;;;10.55;4.38;;;;;;;;;;5004576;28;20055;-46
2023/06/08 12:48:28;;;;;;;10.32;4.60;;;;;;;;;;4994096;28;20064;-48
2023/06/08 12:50:57;;;;;;;9.40;3.90;;;;;;;;;;4999045;28;20041;-45
2023/06/08 12:53:25;;;;;;;9.43;4.25;;;;;;;;;;4961985;28;20506;-46
2023/06/08 12:55:55;;;;;;;7.70;3.00;;;;;;;;;;5006420;28;20048;-47
2023/06/08 12:58:23;;;;;;;14.38;4.22;;;;;;;;;;4998624;28;20675;-45
2023/06/08 13:00:54;;;;;;;10.40;4.57;;;;;;;;;;4968628;28;20103;-47
2023/06/08 13:03:22;;;;;;;8.07;4.15;;;;;;;;;;5006426;28;20076;-45
2023/06/08 13:05:51;;;;;;;10.30;4.75;;;;;;;;;;4995965;28;20053;-46
2023/06/08 13:08:18;;;;;;;7.90;4.33;;;;;;;;;;5003868;28;20040;-48
2023/06/08 13:10:46;;;;;;;10.65;5.00;;;;;;;;;;4994455;28;20187;-46
2023/06/08 13:13:15;;;;;;;10.48;4.90;;;;;;;;;;5006265;28;20052;-47
2023/06/08 13:15:44;;;;;;;13.40;4.57;;;;;;;;;;4982874;28;20965;-46
2023/06/08 13:18:12;;;;;;;8.50;3.50;;;;;;;;;;4977815;28;20041;-45
2023/06/08 13:20:41;;;;;;;8.53;4.23;;;;;;;;;;4996279;28;20045;-45
2023/06/08 13:23:08;;;;;;;10.75;3.97;;;;;;;;;;5007843;28;20055;-48
2023/06/08 13:25:37;;;;;;;8.43;4.72;;;;;;;;;;4991875;28;20048;-48
2023/06/08 13:28:06;;;;;;;9.50;4.30;;;;;;;;;;5007955;28;21275;-45
2023/06/08 13:30:35;;;;;;;10.27;4.10;;;;;;;;;;4992849;28;20075;-47
2023/06/08 13:33:05;;;;;;;9.43;4.13;;;;;;;;;;5009262;28;20049;-46
2023/06/08 13:35:33;;;;;;;10.00;4.07;;;;;;;;;;5003283;28;20102;-45
2023/06/08 13:38:01;;;;;;;9.32;3.83;;;;;;;;;;5009217;28;20350;-47
2023/06/08 13:40:31;;;;;;;9.30;4.35;;;;;;;;;;4986250;28;20399;-45
2023/06/08 13:42:59;;;;;;;8.90;3.80;;;;;;;;;;5031278;28;20052;-45
2023/06/08 13:45:27;;;;;;;9.23;4.07;;;;;;;;;;4995594;28;20075;-47
2023/06/08 13:47:57;;;;;;;9.93;4.57;;;;;;;;;;5026808;28;20098;-45
2023/06/08 13:50:26;;;;;;;8.98;4.30;;;;;;;;;;5016140;28;20037;-45
2023/06/08 13:52:56;;;;;;;9.82;3.88;;;;;;;;;;5015232;28;20096;-48
2023/06/08 13:55:25;;;;;;;8.18;4.07;;;;;;;;;;5012043;28;20033;-45
2023/06/08 13:57:55;;;;;;;9.07;4.00;;;;;;;;;;5018632;28;20509;-44
2023/06/08 14:00:25;;;;;;;9.60;4.25;;;;;;;;;;5023875;28;20126;-45
2023/06/08 14:02:53;;;;;;;11.15;4.03;;;;;;;;;;5013944;28;20467;-45
2023/06/08 14:05:22;;;;;;;9.40;3.55;;;;;;;;;;5017288;28;20491;-45
2023/06/08 14:07:50;;;;;;;8.60;3.47;;;;;;;;;;5004983;28;20044;-46
2023/06/08 14:10:18;;;;;;;10.20;4.00;;;;;;;;;;5027752;28;20053;-47
2023/06/08 14:12:46;;;;;;;8.85;4.00;;;;;;;;;;5017913;28;20832;-46
2023/06/08 14:15:15;;;;;;;7.90;3.95;;;;;;;;;;5032454;28;20056;-45
2023/06/08 14:17:43;;;;;;;12.00;4.38;;;;;;;;;;5008061;28;20047;-46
2023/06/08 14:20:11;;;;;;;10.93;4.43;;;;;;;;;;5027919;28;20044;-45
2023/06/08 14:22:41;;;;;;;9.50;4.07;;;;;;;;;;5007432;28;20044;-49
2023/06/08 14:25:12;;;;;;;11.65;3.95;;;;;;;;;;5019300;28;20056;-46
2023/06/08 14:27:42;;;;;;;11.35;4.30;;;;;;;;;;5021749;28;20880;-46
2023/06/08 14:30:10;;;;;;;9.93;4.18;;;;;;;;;;5024608;28;20040;-46
2023/06/08 14:32:38;;;;;;;8.48;4.00;;;;;;;;;;5003954;28;20152;-47
2023/06/08 14:35:07;;;;;;;9.83;4.57;;;;;;;;;;5020306;28;20099;-46
2023/06/08 14:37:35;;;;;;;8.85;3.80;;;;;;;;;;5033322;28;20045;-45
2023/06/08 14:40:05;;;;;;;16.27;4.85;;;;;;;;;;5010599;28;20037;-47
2023/06/08 14:42:33;;;;;;;11.10;3.90;;;;;;;;;;5007837;28;20281;-47
2023/06/08 14:45:01;;;;;;;11.48;4.47;;;;;;;;;;5013702;28;20041;-47